createdAt,value
2023-03-03T00:01:57.268Z,21.02
2023-03-03T00:05:00.455Z,20.99
2023-03-03T00:08:05.913Z,20.97
2023-03-03T00:11:09.805Z,20.97
2023-03-03T00:14:24.483Z,20.94
2023-03-03T00:17:29.870Z,20.96
2023-03-03T00:20:37.656Z,20.88
2023-03-03T00:23:43.405Z,20.90
2023-03-03T00:26:48.135Z,20.88
2023-03-03T00:29:54.616Z,20.80
2023-03-03T00:32:57.780Z,20.87
2023-03-03T00:36:22.518Z,20.87
2023-03-03T00:39:32.722Z,20.84
2023-03-03T00:42:36.977Z,20.81
2023-03-03T00:45:47.229Z,20.84
2023-03-03T00:48:52.781Z,20.81
2023-03-03T00:51:56.012Z,20.78
2023-03-03T00:55:00.558Z,20.83
2023-03-03T00:58:03.971Z,20.67
2023-03-03T01:01:07.212Z,20.81
2023-03-03T01:04:10.388Z,20.84
2023-03-03T01:07:13.495Z,20.80
2023-03-03T01:10:18.088Z,20.80
2023-03-03T01:13:23.788Z,20.81
2023-03-03T01:16:27.103Z,20.78
2023-03-03T01:19:30.204Z,20.77
2023-03-03T01:22:33.376Z,20.79
2023-03-03T01:25:38.011Z,20.65
2023-03-03T01:28:41.122Z,20.79
2023-03-03T01:31:44.381Z,20.78
2023-03-03T01:34:47.575Z,20.79
2023-03-03T01:37:50.679Z,20.79
2023-03-03T01:40:56.530Z,20.78
2023-03-03T01:43:59.605Z,20.75
2023-03-03T01:47:09.205Z,20.72
2023-03-03T01:50:15.412Z,20.75
2023-03-03T01:53:20.976Z,20.70
2023-03-03T01:56:26.992Z,20.54
2023-03-03T01:59:34.235Z,20.72
2023-03-03T02:02:38.210Z,20.69
2023-03-03T02:05:43.241Z,20.70
2023-03-03T02:08:53.349Z,20.71
2023-03-03T02:12:01.458Z,20.70
2023-03-03T02:15:17.547Z,20.68
2023-03-03T02:18:22.177Z,20.70
2023-03-03T02:21:27.877Z,20.56
2023-03-03T02:24:36.982Z,20.68
2023-03-03T02:27:46.738Z,20.67
2023-03-03T02:30:49.944Z,20.65
2023-03-03T02:33:54.886Z,20.64
2023-03-03T02:36:57.960Z,20.66
2023-03-03T02:40:01.617Z,20.67
2023-03-03T02:43:08.343Z,20.66
2023-03-03T02:46:11.469Z,20.64
2023-03-03T02:49:16.658Z,20.63
2023-03-03T02:52:19.790Z,20.65
2023-03-03T02:55:22.894Z,20.65
2023-03-03T02:58:27.656Z,20.65
2023-03-03T03:01:32.205Z,20.63
2023-03-03T03:04:35.563Z,20.66
2023-03-03T03:07:38.732Z,20.46
2023-03-03T03:10:41.865Z,20.59
2023-03-03T03:13:46.367Z,20.61
2023-03-03T03:16:49.763Z,20.56
2023-03-03T03:19:52.853Z,20.61
2023-03-03T03:22:55.945Z,20.56
2023-03-03T03:25:59.020Z,20.60
2023-03-03T03:29:03.593Z,20.53
2023-03-03T03:32:07.214Z,20.59
2023-03-03T03:35:11.585Z,20.58
2023-03-03T03:38:15.630Z,20.44
2023-03-03T03:41:18.871Z,20.56
2023-03-03T03:44:25.409Z,20.49
2023-03-03T03:47:28.563Z,20.56
2023-03-03T03:50:32.235Z,20.01
2023-03-03T03:53:35.326Z,20.54
2023-03-03T03:56:38.469Z,20.54
2023-03-03T03:59:42.982Z,20.53
2023-03-03T04:02:46.260Z,20.54
2023-03-03T04:05:51.190Z,20.51
2023-03-03T04:08:54.293Z,20.47
2023-03-03T04:11:57.329Z,20.51
2023-03-03T04:15:01.773Z,20.33
2023-03-03T04:18:05.625Z,20.48
2023-03-03T04:21:08.694Z,20.44
2023-03-03T04:24:12.087Z,20.52
2023-03-03T04:27:15.526Z,20.51
2023-03-03T04:30:20.340Z,20.49
2023-03-03T04:33:23.587Z,20.48
2023-03-03T04:36:27.108Z,20.50
2023-03-03T04:39:30.418Z,20.48
2023-03-03T04:42:33.534Z,20.41
2023-03-03T04:45:38.681Z,20.50
2023-03-03T04:48:41.780Z,20.46
2023-03-03T04:51:45.135Z,20.48
2023-03-03T04:54:48.169Z,20.44
2023-03-03T04:57:51.331Z,20.49
2023-03-03T05:00:57.872Z,20.33
2023-03-03T05:04:00.975Z,20.50
2023-03-03T05:07:04.128Z,20.52
2023-03-03T05:10:08.305Z,20.36
2023-03-03T05:13:15.350Z,20.49
2023-03-03T05:16:20.012Z,20.48
2023-03-03T05:19:23.496Z,20.36
2023-03-03T05:22:26.907Z,20.35
2023-03-03T05:25:30.082Z,20.24
2023-03-03T05:28:34.001Z,19.94
2023-03-03T05:31:38.748Z,20.05
2023-03-03T05:34:42.232Z,20.12
2023-03-03T05:37:47.796Z,20.23
2023-03-03T05:40:50.954Z,20.45
2023-03-03T05:43:54.244Z,20.22
2023-03-03T05:46:59.358Z,20.58
2023-03-03T05:50:02.556Z,20.65
2023-03-03T05:53:06.082Z,20.37
2023-03-03T05:56:09.439Z,20.59
2023-03-03T05:59:12.568Z,20.58
2023-03-03T06:02:17.062Z,20.57
2023-03-03T06:05:20.233Z,20.53
2023-03-03T06:08:23.309Z,20.51
2023-03-03T06:11:26.534Z,20.44
2023-03-03T06:14:29.632Z,20.48
2023-03-03T06:17:34.205Z,20.78
2023-03-03T06:20:38.798Z,20.85
2023-03-03T06:23:42.409Z,20.87
2023-03-03T06:26:45.582Z,20.95
2023-03-03T06:29:48.642Z,20.97
2023-03-03T06:32:53.155Z,20.92
2023-03-03T06:35:56.374Z,20.89
2023-03-03T06:38:59.521Z,20.80
2023-03-03T06:42:02.654Z,20.93
2023-03-03T06:45:06.539Z,20.93
2023-03-03T06:48:11.141Z,20.94
2023-03-03T06:51:24.839Z,20.93
2023-03-03T06:54:31.026Z,20.75
2023-03-03T06:57:35.800Z,20.89
2023-03-03T07:00:38.970Z,20.87
2023-03-03T07:03:43.609Z,20.85
2023-03-03T07:06:47.204Z,20.72
2023-03-03T07:09:52.446Z,20.80
2023-03-03T07:12:58.445Z,20.77
2023-03-03T07:16:05.455Z,20.62
2023-03-03T07:19:20.491Z,20.74
2023-03-03T07:22:26.752Z,20.71
2023-03-03T07:25:33.567Z,20.70
2023-03-03T07:28:36.645Z,20.66
2023-03-03T07:31:43.530Z,20.64
2023-03-03T07:34:52.969Z,20.60
2023-03-03T07:37:56.994Z,20.57
2023-03-03T07:41:02.930Z,20.56
2023-03-03T07:44:20.291Z,20.53
2023-03-03T07:47:26.571Z,20.53
2023-03-03T07:50:31.388Z,20.51
2023-03-03T07:53:38.181Z,20.51
2023-03-03T07:56:41.418Z,20.53
2023-03-03T07:59:49.240Z,20.55
2023-03-03T08:02:59.552Z,20.57
2023-03-03T08:06:26.386Z,20.59
2023-03-03T08:09:48.536Z,20.60
2023-03-03T08:12:51.600Z,20.58
2023-03-03T08:16:01.920Z,20.59
2023-03-03T08:19:07.517Z,20.63
2023-03-03T08:22:17.386Z,20.63
2023-03-03T08:25:20.460Z,20.63
2023-03-03T08:28:24.199Z,20.61
2023-03-03T08:31:40.333Z,20.41
2023-03-03T08:34:44.659Z,20.62
2023-03-03T08:37:49.157Z,20.57
2023-03-03T08:40:52.387Z,20.59
2023-03-03T08:43:55.489Z,20.59
2023-03-03T08:46:58.650Z,20.54
2023-03-03T08:50:01.780Z,20.54
2023-03-03T08:53:07.521Z,20.49
2023-03-03T08:56:10.666Z,20.52
2023-03-03T08:59:13.873Z,20.51
2023-03-03T09:02:17.929Z,20.48
2023-03-03T09:05:22.446Z,20.49
2023-03-03T09:08:27.041Z,20.48
2023-03-03T09:11:32.687Z,20.48
2023-03-03T09:14:35.798Z,20.48
2023-03-03T09:17:39.260Z,20.48
2023-03-03T09:20:44.084Z,20.48
2023-03-03T09:23:54.833Z,20.50
2023-03-03T09:26:59.598Z,20.44
2023-03-03T09:30:10.876Z,20.47
2023-03-03T09:33:29.240Z,20.51
2023-03-03T09:36:38.161Z,20.49
2023-03-03T09:39:42.810Z,20.52
2023-03-03T09:43:04.282Z,20.48
2023-03-03T09:46:15.111Z,20.52
2023-03-03T09:49:27.522Z,20.42
2023-03-03T09:52:39.564Z,20.53
2023-03-03T09:55:51.909Z,20.53
2023-03-03T09:59:06.853Z,20.50
2023-03-03T10:02:26.219Z,20.53
2023-03-03T10:05:46.632Z,20.52
2023-03-03T10:09:03.965Z,20.47
2023-03-03T10:12:17.928Z,20.52
2023-03-03T10:15:33.845Z,20.41
2023-03-03T10:18:43.690Z,20.51
2023-03-03T10:21:52.224Z,20.51
2023-03-03T10:25:09.476Z,20.47
2023-03-03T10:28:33.364Z,20.20
2023-03-03T10:31:49.914Z,20.46
2023-03-03T10:35:18.543Z,20.47
2023-03-03T10:38:38.236Z,20.45
2023-03-03T10:41:51.660Z,20.46
2023-03-03T10:45:14.436Z,20.21
2023-03-03T10:48:43.976Z,20.46
2023-03-03T10:52:05.681Z,20.47
2023-03-03T10:55:28.088Z,20.47
2023-03-03T10:58:43.762Z,20.47
2023-03-03T11:01:55.022Z,20.46
2023-03-03T11:05:20.515Z,20.47
2023-03-03T11:08:29.969Z,20.38
2023-03-03T11:11:41.280Z,20.47
2023-03-03T11:14:49.227Z,20.48
2023-03-03T11:18:08.206Z,20.10
2023-03-03T11:21:19.965Z,20.48
2023-03-03T11:24:36.526Z,20.45
2023-03-03T11:27:59.957Z,20.46
2023-03-03T11:31:14.350Z,20.47
2023-03-03T11:34:38.848Z,20.47
2023-03-03T11:37:48.020Z,20.48
2023-03-03T11:40:56.428Z,20.32
2023-03-03T11:44:06.559Z,20.39
2023-03-03T11:47:20.557Z,20.41
2023-03-03T11:50:32.473Z,20.46
2023-03-03T11:53:49.211Z,20.46
2023-03-03T11:56:56.297Z,20.46
2023-03-03T12:00:06.328Z,20.45
2023-03-03T12:03:31.202Z,20.46
2023-03-03T12:06:48.866Z,20.46
2023-03-03T12:10:03.572Z,20.46
2023-03-03T12:13:11.387Z,20.43
2023-03-03T12:16:21.711Z,20.46
2023-03-03T12:19:40.832Z,20.46
2023-03-03T12:23:05.814Z,20.44
2023-03-03T12:26:17.829Z,20.46
2023-03-03T12:29:35.164Z,20.44
2023-03-03T12:32:56.814Z,20.41
2023-03-03T12:36:14.343Z,20.31
2023-03-03T12:39:35.156Z,20.45
2023-03-03T12:42:50.538Z,20.39
2023-03-03T12:46:03.867Z,20.43
2023-03-03T12:49:07.037Z,20.43
2023-03-03T12:52:24.300Z,20.42
2023-03-03T12:55:39.930Z,20.43
2023-03-03T12:58:52.854Z,20.43
2023-03-03T13:02:15.480Z,20.39
2023-03-03T13:05:26.152Z,20.40
2023-03-03T13:08:44.790Z,20.41
2023-03-03T13:12:07.147Z,20.40
2023-03-03T13:15:17.214Z,20.40
2023-03-03T13:18:31.908Z,20.40
2023-03-03T13:21:41.517Z,20.40
2023-03-03T13:24:57.176Z,20.41
2023-03-03T13:28:08.013Z,20.40
2023-03-03T13:31:20.167Z,20.42
2023-03-03T13:34:38.505Z,20.37
2023-03-03T13:37:46.675Z,20.39
2023-03-03T13:40:55.735Z,20.39
2023-03-03T13:44:05.413Z,20.27
2023-03-03T13:47:17.780Z,20.38
2023-03-03T13:50:27.496Z,20.38
2023-03-03T13:53:44.448Z,20.37
2023-03-03T13:57:06.628Z,20.27
2023-03-03T14:00:22.966Z,20.38
2023-03-03T14:03:55.410Z,20.38
2023-03-03T14:07:04.927Z,20.37
2023-03-03T14:10:12.994Z,20.23
2023-03-03T14:13:25.213Z,20.38
2023-03-03T14:16:45.445Z,20.37
2023-03-03T14:19:52.560Z,20.37
2023-03-03T14:22:59.533Z,20.37
2023-03-03T14:26:10.113Z,20.37
2023-03-03T14:29:22.925Z,20.36
2023-03-03T14:32:44.543Z,20.30
2023-03-03T14:36:02.427Z,20.35
2023-03-03T14:39:30.757Z,20.37
2023-03-03T14:42:49.028Z,20.36
2023-03-03T14:45:52.756Z,20.35
2023-03-03T14:48:59.914Z,20.35
2023-03-03T14:52:04.904Z,20.34
2023-03-03T14:55:33.734Z,20.35
2023-03-03T14:58:42.414Z,20.33
2023-03-03T15:01:46.445Z,20.32
2023-03-03T15:04:51.034Z,20.33
2023-03-03T15:07:56.817Z,20.32
2023-03-03T15:11:14.520Z,20.32
2023-03-03T15:14:19.811Z,20.32
2023-03-03T15:17:29.122Z,20.16
2023-03-03T15:20:40.770Z,20.32
2023-03-03T15:27:20.044Z,20.31
2023-03-03T15:30:31.082Z,20.31
2023-03-03T15:33:42.142Z,20.30
2023-03-03T15:36:52.106Z,20.31
2023-03-03T15:40:05.282Z,20.30
2023-03-03T15:43:20.264Z,20.30
2023-03-03T15:46:33.437Z,20.27
2023-03-03T15:50:06.225Z,20.29
2023-03-03T15:53:29.876Z,20.21
2023-03-03T15:56:42.870Z,20.28
2023-03-03T16:00:03.753Z,20.29
2023-03-03T16:03:15.403Z,19.48
2023-03-03T16:06:29.132Z,20.16
2023-03-03T16:09:48.861Z,20.28
2023-03-03T16:13:05.070Z,20.28
2023-03-03T16:16:19.123Z,20.28
2023-03-03T16:19:38.746Z,20.27
2023-03-03T16:23:09.491Z,20.25
2023-03-03T16:26:28.613Z,20.25
2023-03-03T16:29:47.988Z,20.26
2023-03-03T16:32:55.004Z,20.25
2023-03-03T16:36:09.292Z,20.25
2023-03-03T16:39:21.572Z,20.25
2023-03-03T16:42:32.589Z,20.25
2023-03-03T16:45:39.637Z,20.19
2023-03-03T16:48:53.268Z,20.20
2023-03-03T16:52:04.559Z,20.22
2023-03-03T16:55:14.391Z,20.24
2023-03-03T16:58:30.279Z,20.24
2023-03-03T17:01:42.847Z,20.08
2023-03-03T17:04:57.826Z,20.20
2023-03-03T17:08:29.673Z,20.22
2023-03-03T17:11:43.478Z,20.23
2023-03-03T17:15:06.460Z,20.24
2023-03-03T17:18:15.908Z,20.23
2023-03-03T17:21:29.475Z,20.23
2023-03-03T17:24:42.210Z,20.21
2023-03-03T17:28:00.404Z,20.23
2023-03-03T17:31:12.133Z,19.90
2023-03-03T17:34:34.056Z,20.23
2023-03-03T17:37:44.892Z,20.08
2023-03-03T17:41:04.453Z,20.23
2023-03-03T17:44:21.219Z,20.22
2023-03-03T17:47:42.808Z,20.21
2023-03-03T17:51:17.843Z,20.22
2023-03-03T17:54:31.652Z,20.21
2023-03-03T17:57:49.023Z,20.21
2023-03-03T18:01:04.888Z,20.22
2023-03-03T18:04:26.500Z,20.18
2023-03-03T18:07:42.221Z,20.22
2023-03-03T18:11:21.065Z,20.21
2023-03-03T18:14:43.896Z,20.21
2023-03-03T18:18:03.548Z,20.18
2023-03-03T18:21:15.358Z,20.22
2023-03-03T18:24:32.019Z,20.02
2023-03-03T18:27:37.385Z,20.21
2023-03-03T18:30:57.173Z,20.21
2023-03-03T18:34:09.101Z,20.21
2023-03-03T18:37:38.618Z,20.18
2023-03-03T18:40:51.583Z,20.21
2023-03-03T18:43:57.760Z,20.21
2023-03-03T18:47:01.041Z,20.15
2023-03-03T18:50:15.812Z,20.20
2023-03-03T18:53:26.922Z,20.16
2023-03-03T18:56:45.869Z,20.21
2023-03-03T18:59:58.385Z,20.20
2023-03-03T19:03:01.744Z,20.20
2023-03-03T19:06:08.741Z,20.21
2023-03-03T19:09:19.771Z,19.93
2023-03-03T19:12:43.565Z,20.19
2023-03-03T19:15:59.150Z,20.20
2023-03-03T19:19:07.623Z,20.17
2023-03-03T19:22:25.982Z,20.20
2023-03-03T19:25:31.905Z,20.20
2023-03-03T19:28:43.016Z,20.19
2023-03-03T19:31:53.081Z,20.20
2023-03-03T19:35:02.498Z,20.18
2023-03-03T19:38:21.466Z,20.20
2023-03-03T19:41:43.352Z,20.19
2023-03-03T19:45:04.431Z,20.19
2023-03-03T19:48:16.833Z,20.19
2023-03-03T19:51:28.942Z,20.19
2023-03-03T19:54:50.948Z,20.12
2023-03-03T19:58:05.916Z,20.02
2023-03-03T20:01:19.140Z,20.17
2023-03-03T20:04:42.417Z,20.19
2023-03-03T20:07:56.098Z,20.20
2023-03-03T20:11:06.571Z,20.18
2023-03-03T20:14:21.601Z,20.20
2023-03-03T20:17:45.582Z,20.18
2023-03-03T20:21:09.343Z,20.11
2023-03-03T20:24:41.061Z,20.15
2023-03-03T20:27:53.853Z,20.19
2023-03-03T20:31:07.703Z,20.13
2023-03-03T20:34:21.394Z,20.17
2023-03-03T20:37:35.878Z,20.18
2023-03-03T20:40:46.725Z,20.15
2023-03-03T20:44:01.165Z,20.15
2023-03-03T20:47:16.228Z,20.16
2023-03-03T20:50:30.503Z,20.17
2023-03-03T20:53:45.202Z,20.01
2023-03-03T20:56:55.842Z,20.16
2023-03-03T21:00:04.013Z,20.17
2023-03-03T21:03:15.508Z,20.15
2023-03-03T21:06:21.060Z,19.95
2023-03-03T21:09:27.229Z,20.10
2023-03-03T21:12:32.344Z,20.16
2023-03-03T21:15:35.816Z,20.17
2023-03-03T21:18:40.480Z,20.17
2023-03-03T21:21:46.332Z,20.17
2023-03-03T21:24:51.659Z,19.99
2023-03-03T21:27:54.846Z,20.16
2023-03-03T21:31:15.476Z,20.16
2023-03-03T21:34:25.706Z,20.17
2023-03-03T21:37:45.962Z,20.14
2023-03-03T21:41:01.086Z,20.14
2023-03-03T21:44:33.180Z,20.15
2023-03-03T21:47:36.320Z,20.01
2023-03-03T21:50:42.924Z,20.16
2023-03-03T21:53:46.527Z,20.16
2023-03-03T21:56:50.182Z,20.06
2023-03-03T21:59:53.491Z,20.02
2023-03-03T22:02:56.641Z,20.15
2023-03-03T22:06:01.158Z,20.15
2023-03-03T22:09:04.531Z,20.14
2023-03-03T22:12:08.899Z,20.14
2023-03-03T22:15:12.311Z,20.16
2023-03-03T22:18:18.329Z,20.00
2023-03-03T22:21:23.201Z,20.17
2023-03-03T22:24:26.358Z,20.12
2023-03-03T22:27:29.468Z,20.14
2023-03-03T22:30:32.671Z,20.14
2023-03-03T22:33:35.793Z,20.01
2023-03-03T22:36:40.285Z,20.17
2023-03-03T22:39:43.334Z,20.16
2023-03-03T22:42:46.462Z,20.17
2023-03-03T22:45:50.568Z,20.17
2023-03-03T22:48:53.691Z,20.16
2023-03-03T22:51:58.906Z,20.16
2023-03-03T22:55:04.152Z,20.15
2023-03-03T22:58:09.529Z,20.16
2023-03-03T23:01:12.765Z,20.16
2023-03-03T23:04:15.881Z,20.16
2023-03-03T23:07:20.508Z,20.15
2023-03-03T23:10:23.548Z,20.16
2023-03-03T23:13:27.448Z,20.16
2023-03-03T23:16:30.636Z,20.16
2023-03-03T23:19:33.769Z,20.15
2023-03-03T23:22:38.238Z,20.16
2023-03-03T23:25:41.341Z,20.16
2023-03-03T23:28:44.727Z,19.98
2023-03-03T23:31:47.880Z,20.16
2023-03-03T23:34:51.276Z,20.14
2023-03-03T23:37:55.737Z,20.02
2023-03-03T23:40:59.037Z,20.13
2023-03-03T23:44:02.211Z,20.15
2023-03-03T23:47:05.576Z,20.15
2023-03-03T23:50:10.149Z,20.07
2023-03-03T23:53:14.860Z,20.15
2023-03-03T23:56:17.945Z,20.16
2023-03-03T23:59:21.296Z,20.15
